sensor_id;sensor_type;location;lat;lon;timestamp;P1;durP1;ratioP1;P2;durP2;ratioP2
19095;SDS011;9680;52.520;13.332;2023-05-07T00:00:56;19.33;;;9.80;;
19095;SDS011;9680;52.520;13.332;2023-05-07T00:03:24;20.93;;;9.77;;
19095;SDS011;9680;52.520;13.332;2023-05-07T00:05:51;18.40;;;9.33;;
19095;SDS011;9680;52.520;13.332;2023-05-07T00:08:18;14.87;;;8.97;;
19095;SDS011;9680;52.520;13.332;2023-05-07T00:10:45;20.33;;;9.37;;
19095;SDS011;9680;52.520;13.332;2023-05-07T00:13:12;17.30;;;9.50;;
19095;SDS011;9680;52.520;13.332;2023-05-07T00:15:39;17.70;;;8.83;;
19095;SDS011;9680;52.520;13.332;2023-05-07T00:18:07;17.93;;;9.73;;
19095;SDS011;9680;52.520;13.332;2023-05-07T00:20:34;20.57;;;8.77;;
19095;SDS011;9680;52.520;13.332;2023-05-07T00:23:01;17.70;;;8.77;;
19095;SDS011;9680;52.520;13.332;2023-05-07T00:25:33;15.87;;;8.37;;
19095;SDS011;9680;52.520;13.332;2023-05-07T00:27:59;14.33;;;7.87;;
19095;SDS011;9680;52.520;13.332;2023-05-07T00:30:28;17.47;;;8.03;;
19095;SDS011;9680;52.520;13.332;2023-05-07T00:32:55;16.30;;;8.33;;
19095;SDS011;9680;52.520;13.332;2023-05-07T00:35:23;14.80;;;7.87;;
19095;SDS011;9680;52.520;13.332;2023-05-07T00:37:54;14.63;;;8.43;;
19095;SDS011;9680;52.520;13.332;2023-05-07T00:40:21;15.43;;;7.90;;
19095;SDS011;9680;52.520;13.332;2023-05-07T00:42:52;14.83;;;8.07;;
19095;SDS011;9680;52.520;13.332;2023-05-07T00:45:23;15.50;;;7.93;;
19095;SDS011;9680;52.520;13.332;2023-05-07T00:47:54;13.80;;;7.37;;
19095;SDS011;9680;52.520;13.332;2023-05-07T00:50:21;15.50;;;7.83;;
19095;SDS011;9680;52.520;13.332;2023-05-07T00:52:50;16.10;;;7.80;;
19095;SDS011;9680;52.520;13.332;2023-05-07T00:55:17;19.03;;;8.30;;
19095;SDS011;9680;52.520;13.332;2023-05-07T00:57:44;14.90;;;8.33;;
19095;SDS011;9680;52.520;13.332;2023-05-07T01:00:25;16.07;;;8.27;;
19095;SDS011;9680;52.520;13.332;2023-05-07T01:02:52;14.47;;;8.07;;
19095;SDS011;9680;52.520;13.332;2023-05-07T01:05:19;15.10;;;8.63;;
19095;SDS011;9680;52.520;13.332;2023-05-07T01:07:47;16.27;;;8.53;;
19095;SDS011;9680;52.520;13.332;2023-05-07T01:10:17;15.67;;;8.20;;
19095;SDS011;9680;52.520;13.332;2023-05-07T01:12:44;16.37;;;8.73;;
19095;SDS011;9680;52.520;13.332;2023-05-07T01:15:13;19.87;;;9.07;;
19095;SDS011;9680;52.520;13.332;2023-05-07T01:17:41;15.10;;;8.90;;
19095;SDS011;9680;52.520;13.332;2023-05-07T01:20:17;13.77;;;8.30;;
19095;SDS011;9680;52.520;13.332;2023-05-07T01:22:51;19.20;;;8.13;;
19095;SDS011;9680;52.520;13.332;2023-05-07T01:25:18;15.63;;;7.77;;
19095;SDS011;9680;52.520;13.332;2023-05-07T01:27:49;14.83;;;8.10;;
19095;SDS011;9680;52.520;13.332;2023-05-07T01:30:17;14.10;;;7.83;;
19095;SDS011;9680;52.520;13.332;2023-05-07T01:32:48;14.83;;;8.00;;
19095;SDS011;9680;52.520;13.332;2023-05-07T01:35:21;18.10;;;8.17;;
19095;SDS011;9680;52.520;13.332;2023-05-07T01:37:52;15.27;;;8.00;;
19095;SDS011;9680;52.520;13.332;2023-05-07T01:40:20;15.03;;;7.93;;
19095;SDS011;9680;52.520;13.332;2023-05-07T01:42:47;14.27;;;7.90;;
19095;SDS011;9680;52.520;13.332;2023-05-07T01:45:14;12.03;;;7.37;;
19095;SDS011;9680;52.520;13.332;2023-05-07T01:47:41;14.33;;;8.17;;
19095;SDS011;9680;52.520;13.332;2023-05-07T01:50:09;13.77;;;7.33;;
19095;SDS011;9680;52.520;13.332;2023-05-07T01:52:36;11.77;;;7.17;;
19095;SDS011;9680;52.520;13.332;2023-05-07T01:55:06;16.33;;;7.93;;
19095;SDS011;9680;52.520;13.332;2023-05-07T01:57:33;12.50;;;6.83;;
19095;SDS011;9680;52.520;13.332;2023-05-07T02:00:00;14.03;;;7.80;;
19095;SDS011;9680;52.520;13.332;2023-05-07T02:02:40;13.63;;;7.30;;
19095;SDS011;9680;52.520;13.332;2023-05-07T02:05:16;16.57;;;8.13;;
19095;SDS011;9680;52.520;13.332;2023-05-07T02:07:46;18.13;;;8.50;;
19095;SDS011;9680;52.520;13.332;2023-05-07T02:10:15;14.10;;;8.30;;
19095;SDS011;9680;52.520;13.332;2023-05-07T02:12:42;14.33;;;8.30;;
19095;SDS011;9680;52.520;13.332;2023-05-07T02:15:10;16.67;;;7.70;;
19095;SDS011;9680;52.520;13.332;2023-05-07T02:17:38;14.60;;;7.80;;
19095;SDS011;9680;52.520;13.332;2023-05-07T02:20:23;16.03;;;8.40;;
19095;SDS011;9680;52.520;13.332;2023-05-07T02:22:50;17.60;;;8.57;;
19095;SDS011;9680;52.520;13.332;2023-05-07T02:25:18;17.47;;;8.63;;
19095;SDS011;9680;52.520;13.332;2023-05-07T02:27:45;16.60;;;8.73;;
19095;SDS011;9680;52.520;13.332;2023-05-07T02:30:13;13.73;;;8.50;;
19095;SDS011;9680;52.520;13.332;2023-05-07T02:32:41;17.27;;;9.03;;
19095;SDS011;9680;52.520;13.332;2023-05-07T02:35:08;15.37;;;8.43;;
19095;SDS011;9680;52.520;13.332;2023-05-07T02:37:36;15.70;;;9.10;;
19095;SDS011;9680;52.520;13.332;2023-05-07T02:40:03;14.30;;;8.13;;
19095;SDS011;9680;52.520;13.332;2023-05-07T02:42:32;17.07;;;7.90;;
19095;SDS011;9680;52.520;13.332;2023-05-07T02:44:59;15.93;;;8.27;;
19095;SDS011;9680;52.520;13.332;2023-05-07T02:47:26;15.00;;;7.97;;
19095;SDS011;9680;52.520;13.332;2023-05-07T02:49:54;13.50;;;8.13;;
19095;SDS011;9680;52.520;13.332;2023-05-07T02:52:20;15.53;;;8.07;;
19095;SDS011;9680;52.520;13.332;2023-05-07T02:54:47;13.07;;;7.63;;
19095;SDS011;9680;52.520;13.332;2023-05-07T02:57:14;14.87;;;7.97;;
19095;SDS011;9680;52.520;13.332;2023-05-07T02:59:42;14.93;;;8.40;;
19095;SDS011;9680;52.520;13.332;2023-05-07T03:02:12;14.67;;;7.80;;
19095;SDS011;9680;52.520;13.332;2023-05-07T03:04:39;21.60;;;7.40;;
19095;SDS011;9680;52.520;13.332;2023-05-07T03:07:06;14.90;;;7.50;;
19095;SDS011;9680;52.520;13.332;2023-05-07T03:09:33;16.20;;;7.10;;
19095;SDS011;9680;52.520;13.332;2023-05-07T03:12:00;14.80;;;7.70;;
19095;SDS011;9680;52.520;13.332;2023-05-07T03:14:27;18.03;;;7.77;;
19095;SDS011;9680;52.520;13.332;2023-05-07T03:16:56;15.47;;;8.10;;
19095;SDS011;9680;52.520;13.332;2023-05-07T03:19:23;11.70;;;6.80;;
19095;SDS011;9680;52.520;13.332;2023-05-07T03:21:50;12.70;;;6.83;;
19095;SDS011;9680;52.520;13.332;2023-05-07T03:24:17;12.80;;;6.80;;
19095;SDS011;9680;52.520;13.332;2023-05-07T03:26:43;15.23;;;7.87;;
19095;SDS011;9680;52.520;13.332;2023-05-07T03:29:11;13.50;;;6.70;;
19095;SDS011;9680;52.520;13.332;2023-05-07T03:31:37;11.77;;;6.70;;
19095;SDS011;9680;52.520;13.332;2023-05-07T03:34:06;15.13;;;7.30;;
19095;SDS011;9680;52.520;13.332;2023-05-07T03:36:32;13.73;;;7.37;;
19095;SDS011;9680;52.520;13.332;2023-05-07T03:38:59;14.73;;;7.07;;
19095;SDS011;9680;52.520;13.332;2023-05-07T03:41:34;12.93;;;6.67;;
19095;SDS011;9680;52.520;13.332;2023-05-07T03:44:01;12.57;;;7.57;;
19095;SDS011;9680;52.520;13.332;2023-05-07T03:46:29;12.37;;;7.10;;
19095;SDS011;9680;52.520;13.332;2023-05-07T03:48:56;13.70;;;6.77;;
19095;SDS011;9680;52.520;13.332;2023-05-07T03:51:24;12.03;;;7.07;;
19095;SDS011;9680;52.520;13.332;2023-05-07T03:53:52;12.93;;;7.10;;
19095;SDS011;9680;52.520;13.332;2023-05-07T03:56:19;13.23;;;7.20;;
19095;SDS011;9680;52.520;13.332;2023-05-07T03:58:52;13.90;;;7.50;;
19095;SDS011;9680;52.520;13.332;2023-05-07T04:01:18;11.47;;;6.87;;
19095;SDS011;9680;52.520;13.332;2023-05-07T04:03:46;15.00;;;8.00;;
19095;SDS011;9680;52.520;13.332;2023-05-07T04:06:15;13.43;;;7.77;;
19095;SDS011;9680;52.520;13.332;2023-05-07T04:08:45;13.10;;;7.57;;
19095;SDS011;9680;52.520;13.332;2023-05-07T04:11:12;14.23;;;7.93;;
19095;SDS011;9680;52.520;13.332;2023-05-07T04:13:40;17.83;;;9.07;;
19095;SDS011;9680;52.520;13.332;2023-05-07T04:16:08;15.50;;;7.87;;
19095;SDS011;9680;52.520;13.332;2023-05-07T04:18:36;11.53;;;7.13;;
19095;SDS011;9680;52.520;13.332;2023-05-07T04:21:04;15.60;;;7.90;;
19095;SDS011;9680;52.520;13.332;2023-05-07T04:23:34;12.17;;;7.37;;
19095;SDS011;9680;52.520;13.332;2023-05-07T04:26:05;14.83;;;7.43;;
19095;SDS011;9680;52.520;13.332;2023-05-07T04:28:36;14.73;;;7.63;;
19095;SDS011;9680;52.520;13.332;2023-05-07T04:31:03;13.23;;;6.93;;
19095;SDS011;9680;52.520;13.332;2023-05-07T04:33:32;12.33;;;7.57;;
19095;SDS011;9680;52.520;13.332;2023-05-07T04:36:00;13.03;;;7.20;;
19095;SDS011;9680;52.520;13.332;2023-05-07T04:38:29;14.87;;;7.40;;
19095;SDS011;9680;52.520;13.332;2023-05-07T04:40:58;11.33;;;6.33;;
19095;SDS011;9680;52.520;13.332;2023-05-07T04:43:30;12.77;;;6.90;;
19095;SDS011;9680;52.520;13.332;2023-05-07T04:45:57;13.37;;;6.90;;
19095;SDS011;9680;52.520;13.332;2023-05-07T04:48:26;16.97;;;6.33;;
19095;SDS011;9680;52.520;13.332;2023-05-07T04:50:54;13.73;;;7.27;;
19095;SDS011;9680;52.520;13.332;2023-05-07T04:53:21;13.90;;;6.90;;
19095;SDS011;9680;52.520;13.332;2023-05-07T04:55:54;11.77;;;6.17;;
19095;SDS011;9680;52.520;13.332;2023-05-07T04:58:33;12.20;;;6.53;;
19095;SDS011;9680;52.520;13.332;2023-05-07T05:01:00;11.77;;;6.40;;
19095;SDS011;9680;52.520;13.332;2023-05-07T05:03:28;11.00;;;5.90;;
19095;SDS011;9680;52.520;13.332;2023-05-07T05:05:55;13.97;;;6.10;;
19095;SDS011;9680;52.520;13.332;2023-05-07T05:08:26;11.83;;;5.63;;
19095;SDS011;9680;52.520;13.332;2023-05-07T05:10:53;10.23;;;6.17;;
19095;SDS011;9680;52.520;13.332;2023-05-07T05:13:20;11.03;;;6.33;;
19095;SDS011;9680;52.520;13.332;2023-05-07T05:15:48;11.60;;;5.70;;
19095;SDS011;9680;52.520;13.332;2023-05-07T05:18:16;11.60;;;5.93;;
19095;SDS011;9680;52.520;13.332;2023-05-07T05:20:43;13.30;;;5.20;;
19095;SDS011;9680;52.520;13.332;2023-05-07T05:23:11;9.13;;;5.23;;
19095;SDS011;9680;52.520;13.332;2023-05-07T05:25:38;8.73;;;4.73;;
19095;SDS011;9680;52.520;13.332;2023-05-07T05:28:08;9.27;;;5.07;;
19095;SDS011;9680;52.520;13.332;2023-05-07T05:30:35;8.50;;;5.13;;
19095;SDS011;9680;52.520;13.332;2023-05-07T05:33:04;8.63;;;5.10;;
19095;SDS011;9680;52.520;13.332;2023-05-07T05:35:31;8.73;;;5.30;;
19095;SDS011;9680;52.520;13.332;2023-05-07T05:38:01;9.77;;;5.23;;
19095;SDS011;9680;52.520;13.332;2023-05-07T05:40:28;9.30;;;5.00;;
19095;SDS011;9680;52.520;13.332;2023-05-07T05:42:55;11.00;;;5.00;;
19095;SDS011;9680;52.520;13.332;2023-05-07T05:45:23;8.23;;;4.80;;
19095;SDS011;9680;52.520;13.332;2023-05-07T05:47:50;9.80;;;5.23;;
19095;SDS011;9680;52.520;13.332;2023-05-07T05:50:18;12.40;;;5.17;;
19095;SDS011;9680;52.520;13.332;2023-05-07T05:52:47;10.67;;;4.87;;
19095;SDS011;9680;52.520;13.332;2023-05-07T05:55:16;8.33;;;4.73;;
19095;SDS011;9680;52.520;13.332;2023-05-07T05:57:43;7.77;;;4.67;;
19095;SDS011;9680;52.520;13.332;2023-05-07T06:00:10;9.53;;;5.10;;
19095;SDS011;9680;52.520;13.332;2023-05-07T06:02:46;10.60;;;4.87;;
19095;SDS011;9680;52.520;13.332;2023-05-07T06:05:21;10.87;;;5.13;;
19095;SDS011;9680;52.520;13.332;2023-05-07T06:07:51;9.67;;;5.40;;
19095;SDS011;9680;52.520;13.332;2023-05-07T06:10:18;10.60;;;5.30;;
19095;SDS011;9680;52.520;13.332;2023-05-07T06:12:45;12.53;;;5.40;;
19095;SDS011;9680;52.520;13.332;2023-05-07T06:15:12;8.80;;;5.27;;
19095;SDS011;9680;52.520;13.332;2023-05-07T06:17:40;11.97;;;5.77;;
19095;SDS011;9680;52.520;13.332;2023-05-07T06:20:09;9.73;;;5.53;;
19095;SDS011;9680;52.520;13.332;2023-05-07T06:22:39;10.50;;;5.73;;
19095;SDS011;9680;52.520;13.332;2023-05-07T06:25:07;10.70;;;5.83;;
19095;SDS011;9680;52.520;13.332;2023-05-07T06:27:36;11.03;;;6.10;;
19095;SDS011;9680;52.520;13.332;2023-05-07T06:30:05;10.03;;;5.90;;
19095;SDS011;9680;52.520;13.332;2023-05-07T06:32:32;10.57;;;5.70;;
19095;SDS011;9680;52.520;13.332;2023-05-07T06:34:59;12.07;;;5.80;;
19095;SDS011;9680;52.520;13.332;2023-05-07T06:37:26;9.87;;;5.50;;
19095;SDS011;9680;52.520;13.332;2023-05-07T06:40:01;10.17;;;5.93;;
19095;SDS011;9680;52.520;13.332;2023-05-07T06:42:31;11.10;;;6.03;;
19095;SDS011;9680;52.520;13.332;2023-05-07T06:45:15;9.47;;;5.20;;
19095;SDS011;9680;52.520;13.332;2023-05-07T06:47:44;10.27;;;5.60;;
19095;SDS011;9680;52.520;13.332;2023-05-07T06:50:11;9.20;;;5.60;;
19095;SDS011;9680;52.520;13.332;2023-05-07T06:52:38;10.97;;;5.73;;
19095;SDS011;9680;52.520;13.332;2023-05-07T06:55:07;9.87;;;5.10;;
19095;SDS011;9680;52.520;13.332;2023-05-07T06:57:36;9.33;;;5.30;;
19095;SDS011;9680;52.520;13.332;2023-05-07T07:00:03;8.60;;;5.38;;
19095;SDS011;9680;52.520;13.332;2023-05-07T07:02:40;10.33;;;5.50;;
19095;SDS011;9680;52.520;13.332;2023-05-07T07:05:08;11.30;;;5.37;;
19095;SDS011;9680;52.520;13.332;2023-05-07T07:07:37;10.13;;;5.63;;
19095;SDS011;9680;52.520;13.332;2023-05-07T07:10:04;10.98;;;5.60;;
19095;SDS011;9680;52.520;13.332;2023-05-07T07:12:33;11.45;;;5.30;;
19095;SDS011;9680;52.520;13.332;2023-05-07T07:15:00;9.20;;;5.60;;
19095;SDS011;9680;52.520;13.332;2023-05-07T07:17:28;8.53;;;5.00;;
19095;SDS011;9680;52.520;13.332;2023-05-07T07:19:55;8.77;;;4.90;;
19095;SDS011;9680;52.520;13.332;2023-05-07T07:22:22;7.57;;;4.55;;
19095;SDS011;9680;52.520;13.332;2023-05-07T07:24:49;9.32;;;4.95;;
19095;SDS011;9680;52.520;13.332;2023-05-07T07:27:17;7.72;;;4.70;;
19095;SDS011;9680;52.520;13.332;2023-05-07T07:29:45;9.02;;;4.50;;
19095;SDS011;9680;52.520;13.332;2023-05-07T07:32:12;7.20;;;4.38;;
19095;SDS011;9680;52.520;13.332;2023-05-07T07:34:39;9.07;;;4.45;;
19095;SDS011;9680;52.520;13.332;2023-05-07T07:37:07;10.65;;;4.32;;
19095;SDS011;9680;52.520;13.332;2023-05-07T07:39:35;7.38;;;3.95;;
19095;SDS011;9680;52.520;13.332;2023-05-07T07:42:04;6.68;;;4.15;;
19095;SDS011;9680;52.520;13.332;2023-05-07T07:44:32;7.80;;;4.50;;
19095;SDS011;9680;52.520;13.332;2023-05-07T07:47:05;9.13;;;4.93;;
19095;SDS011;9680;52.520;13.332;2023-05-07T07:49:32;5.57;;;3.90;;
19095;SDS011;9680;52.520;13.332;2023-05-07T07:52:05;6.80;;;4.20;;
19095;SDS011;9680;52.520;13.332;2023-05-07T07:54:34;5.93;;;3.53;;
19095;SDS011;9680;52.520;13.332;2023-05-07T07:57:02;7.70;;;3.60;;
19095;SDS011;9680;52.520;13.332;2023-05-07T07:59:35;5.90;;;3.50;;
19095;SDS011;9680;52.520;13.332;2023-05-07T08:02:10;6.22;;;3.78;;
19095;SDS011;9680;52.520;13.332;2023-05-07T08:04:37;6.80;;;3.42;;
19095;SDS011;9680;52.520;13.332;2023-05-07T08:07:06;6.20;;;3.67;;
19095;SDS011;9680;52.520;13.332;2023-05-07T08:09:36;7.13;;;3.60;;
19095;SDS011;9680;52.520;13.332;2023-05-07T08:12:04;5.25;;;3.40;;
19095;SDS011;9680;52.520;13.332;2023-05-07T08:14:32;5.95;;;3.42;;
19095;SDS011;9680;52.520;13.332;2023-05-07T08:17:04;7.22;;;3.60;;
19095;SDS011;9680;52.520;13.332;2023-05-07T08:19:32;6.03;;;3.08;;
19095;SDS011;9680;52.520;13.332;2023-05-07T08:22:00;5.60;;;3.13;;
19095;SDS011;9680;52.520;13.332;2023-05-07T08:24:27;9.23;;;3.55;;
19095;SDS011;9680;52.520;13.332;2023-05-07T08:26:54;4.68;;;3.13;;
19095;SDS011;9680;52.520;13.332;2023-05-07T08:29:21;5.90;;;3.40;;
19095;SDS011;9680;52.520;13.332;2023-05-07T08:31:48;7.00;;;3.08;;
19095;SDS011;9680;52.520;13.332;2023-05-07T08:34:15;4.50;;;2.88;;
19095;SDS011;9680;52.520;13.332;2023-05-07T08:36:46;5.68;;;3.20;;
19095;SDS011;9680;52.520;13.332;2023-05-07T08:39:16;4.50;;;2.67;;
19095;SDS011;9680;52.520;13.332;2023-05-07T08:41:45;8.30;;;3.40;;
19095;SDS011;9680;52.520;13.332;2023-05-07T08:44:14;7.82;;;3.33;;
19095;SDS011;9680;52.520;13.332;2023-05-07T08:46:45;5.25;;;3.42;;
19095;SDS011;9680;52.520;13.332;2023-05-07T08:49:14;4.65;;;2.90;;
19095;SDS011;9680;52.520;13.332;2023-05-07T08:51:42;6.57;;;3.25;;
19095;SDS011;9680;52.520;13.332;2023-05-07T08:54:11;4.07;;;2.92;;
19095;SDS011;9680;52.520;13.332;2023-05-07T08:56:38;4.22;;;2.90;;
19095;SDS011;9680;52.520;13.332;2023-05-07T08:59:06;7.68;;;2.90;;
19095;SDS011;9680;52.520;13.332;2023-05-07T09:01:32;6.45;;;3.30;;
19095;SDS011;9680;52.520;13.332;2023-05-07T09:04:01;5.65;;;3.35;;
19095;SDS011;9680;52.520;13.332;2023-05-07T09:06:29;5.53;;;3.40;;
19095;SDS011;9680;52.520;13.332;2023-05-07T09:08:56;4.90;;;3.00;;
19095;SDS011;9680;52.520;13.332;2023-05-07T09:11:29;9.30;;;3.20;;
19095;SDS011;9680;52.520;13.332;2023-05-07T09:13:59;4.93;;;2.97;;
19095;SDS011;9680;52.520;13.332;2023-05-07T09:16:32;76.75;;;6.15;;
19095;SDS011;9680;52.520;13.332;2023-05-07T09:18:59;6.28;;;2.80;;
19095;SDS011;9680;52.520;13.332;2023-05-07T09:21:27;4.90;;;2.95;;
19095;SDS011;9680;52.520;13.332;2023-05-07T09:23:56;5.25;;;2.97;;
19095;SDS011;9680;52.520;13.332;2023-05-07T09:26:33;5.63;;;3.03;;
19095;SDS011;9680;52.520;13.332;2023-05-07T09:29:01;4.72;;;2.95;;
19095;SDS011;9680;52.520;13.332;2023-05-07T09:31:28;7.32;;;3.35;;
19095;SDS011;9680;52.520;13.332;2023-05-07T09:33:55;4.50;;;3.00;;
19095;SDS011;9680;52.520;13.332;2023-05-07T09:36:27;4.78;;;2.78;;
19095;SDS011;9680;52.520;13.332;2023-05-07T09:38:58;4.63;;;2.72;;
19095;SDS011;9680;52.520;13.332;2023-05-07T09:41:26;3.95;;;2.80;;
19095;SDS011;9680;52.520;13.332;2023-05-07T09:44:20;5.13;;;2.97;;
19095;SDS011;9680;52.520;13.332;2023-05-07T09:46:51;4.40;;;3.03;;
19095;SDS011;9680;52.520;13.332;2023-05-07T09:49:28;4.43;;;2.97;;
19095;SDS011;9680;52.520;13.332;2023-05-07T09:52:00;5.85;;;2.90;;
19095;SDS011;9680;52.520;13.332;2023-05-07T09:54:32;8.88;;;2.90;;
19095;SDS011;9680;52.520;13.332;2023-05-07T09:57:01;5.63;;;2.83;;
19095;SDS011;9680;52.520;13.332;2023-05-07T09:59:30;4.80;;;2.83;;
19095;SDS011;9680;52.520;13.332;2023-05-07T10:02:03;4.85;;;2.90;;
19095;SDS011;9680;52.520;13.332;2023-05-07T10:04:36;5.60;;;2.80;;
19095;SDS011;9680;52.520;13.332;2023-05-07T10:07:04;6.45;;;2.78;;
19095;SDS011;9680;52.520;13.332;2023-05-07T10:09:32;5.30;;;2.45;;
19095;SDS011;9680;52.520;13.332;2023-05-07T10:12:04;4.70;;;2.55;;
19095;SDS011;9680;52.520;13.332;2023-05-07T10:14:34;5.53;;;2.70;;
19095;SDS011;9680;52.520;13.332;2023-05-07T10:17:04;3.92;;;2.40;;
19095;SDS011;9680;52.520;13.332;2023-05-07T10:19:32;3.70;;;2.53;;
19095;SDS011;9680;52.520;13.332;2023-05-07T10:22:03;4.53;;;2.00;;
19095;SDS011;9680;52.520;13.332;2023-05-07T10:24:36;2.72;;;1.85;;
19095;SDS011;9680;52.520;13.332;2023-05-07T10:27:11;3.50;;;1.80;;
19095;SDS011;9680;52.520;13.332;2023-05-07T10:29:48;3.53;;;2.10;;
19095;SDS011;9680;52.520;13.332;2023-05-07T10:32:30;3.00;;;2.00;;
19095;SDS011;9680;52.520;13.332;2023-05-07T10:35:06;3.13;;;2.03;;
19095;SDS011;9680;52.520;13.332;2023-05-07T10:37:37;3.20;;;2.05;;
19095;SDS011;9680;52.520;13.332;2023-05-07T10:40:05;3.47;;;1.77;;
19095;SDS011;9680;52.520;13.332;2023-05-07T10:42:33;2.28;;;1.50;;
19095;SDS011;9680;52.520;13.332;2023-05-07T10:45:12;5.28;;;1.80;;
19095;SDS011;9680;52.520;13.332;2023-05-07T10:50:34;5.43;;;1.70;;
19095;SDS011;9680;52.520;13.332;2023-05-07T10:53:22;4.50;;;2.10;;
19095;SDS011;9680;52.520;13.332;2023-05-07T11:02:15;19.75;;;2.30;;
19095;SDS011;9680;52.520;13.332;2023-05-07T11:07:54;3.50;;;1.65;;
19095;SDS011;9680;52.520;13.332;2023-05-07T11:10:23;4.35;;;1.90;;
19095;SDS011;9680;52.520;13.332;2023-05-07T11:13:42;2.45;;;1.70;;
19095;SDS011;9680;52.520;13.332;2023-05-07T11:16:19;2.88;;;1.80;;
19095;SDS011;9680;52.520;13.332;2023-05-07T11:18:53;2.80;;;1.63;;
19095;SDS011;9680;52.520;13.332;2023-05-07T11:21:34;2.53;;;1.80;;
19095;SDS011;9680;52.520;13.332;2023-05-07T11:24:18;3.03;;;1.73;;
19095;SDS011;9680;52.520;13.332;2023-05-07T11:27:00;3.28;;;1.75;;
19095;SDS011;9680;52.520;13.332;2023-05-07T11:29:29;2.70;;;1.80;;
19095;SDS011;9680;52.520;13.332;2023-05-07T11:32:03;4.25;;;2.00;;
19095;SDS011;9680;52.520;13.332;2023-05-07T11:34:38;3.75;;;1.90;;
19095;SDS011;9680;52.520;13.332;2023-05-07T11:37:05;6.07;;;1.70;;
19095;SDS011;9680;52.520;13.332;2023-05-07T11:39:47;3.03;;;2.05;;
19095;SDS011;9680;52.520;13.332;2023-05-07T11:42:25;3.47;;;1.88;;
19095;SDS011;9680;52.520;13.332;2023-05-07T11:44:52;4.40;;;1.90;;
19095;SDS011;9680;52.520;13.332;2023-05-07T11:47:19;3.65;;;2.20;;
19095;SDS011;9680;52.520;13.332;2023-05-07T11:49:49;3.55;;;2.25;;
19095;SDS011;9680;52.520;13.332;2023-05-07T11:52:17;4.50;;;2.20;;
19095;SDS011;9680;52.520;13.332;2023-05-07T11:54:48;5.90;;;1.90;;
19095;SDS011;9680;52.520;13.332;2023-05-07T11:57:15;3.92;;;1.83;;
19095;SDS011;9680;52.520;13.332;2023-05-07T11:59:42;4.57;;;1.73;;
19095;SDS011;9680;52.520;13.332;2023-05-07T12:02:13;6.78;;;2.15;;
19095;SDS011;9680;52.520;13.332;2023-05-07T12:04:40;2.60;;;2.00;;
19095;SDS011;9680;52.520;13.332;2023-05-07T12:07:12;3.78;;;2.13;;
19095;SDS011;9680;52.520;13.332;2023-05-07T12:09:39;4.50;;;2.40;;
19095;SDS011;9680;52.520;13.332;2023-05-07T12:12:07;3.42;;;1.80;;
19095;SDS011;9680;52.520;13.332;2023-05-07T12:14:37;2.75;;;1.70;;
19095;SDS011;9680;52.520;13.332;2023-05-07T12:17:05;3.63;;;2.15;;
19095;SDS011;9680;52.520;13.332;2023-05-07T12:19:33;2.38;;;1.70;;
19095;SDS011;9680;52.520;13.332;2023-05-07T12:22:01;2.63;;;1.55;;
19095;SDS011;9680;52.520;13.332;2023-05-07T12:24:39;4.55;;;1.70;;
19095;SDS011;9680;52.520;13.332;2023-05-07T12:27:11;3.08;;;1.83;;
19095;SDS011;9680;52.520;13.332;2023-05-07T12:29:39;2.55;;;1.60;;
19095;SDS011;9680;52.520;13.332;2023-05-07T12:32:12;4.97;;;1.90;;
19095;SDS011;9680;52.520;13.332;2023-05-07T12:34:40;3.75;;;1.70;;
19095;SDS011;9680;52.520;13.332;2023-05-07T12:37:07;3.58;;;1.65;;
19095;SDS011;9680;52.520;13.332;2023-05-07T12:39:35;2.22;;;1.67;;
19095;SDS011;9680;52.520;13.332;2023-05-07T12:42:02;2.63;;;1.63;;
19095;SDS011;9680;52.520;13.332;2023-05-07T12:44:30;3.05;;;1.63;;
19095;SDS011;9680;52.520;13.332;2023-05-07T12:46:58;2.20;;;1.55;;
19095;SDS011;9680;52.520;13.332;2023-05-07T12:49:28;2.70;;;1.70;;
19095;SDS011;9680;52.520;13.332;2023-05-07T12:51:54;3.72;;;1.80;;
19095;SDS011;9680;52.520;13.332;2023-05-07T12:54:28;4.10;;;1.80;;
19095;SDS011;9680;52.520;13.332;2023-05-07T12:57:01;2.17;;;1.58;;
19095;SDS011;9680;52.520;13.332;2023-05-07T12:59:32;2.97;;;1.65;;
19095;SDS011;9680;52.520;13.332;2023-05-07T13:02:00;3.25;;;1.77;;
19095;SDS011;9680;52.520;13.332;2023-05-07T13:04:26;2.95;;;1.65;;
19095;SDS011;9680;52.520;13.332;2023-05-07T13:06:53;2.75;;;1.60;;
19095;SDS011;9680;52.520;13.332;2023-05-07T13:09:20;2.70;;;1.63;;
19095;SDS011;9680;52.520;13.332;2023-05-07T13:11:47;2.22;;;1.73;;
19095;SDS011;9680;52.520;13.332;2023-05-07T13:14:15;2.70;;;1.60;;
19095;SDS011;9680;52.520;13.332;2023-05-07T13:16:42;2.63;;;1.50;;
19095;SDS011;9680;52.520;13.332;2023-05-07T13:19:09;3.35;;;1.80;;
19095;SDS011;9680;52.520;13.332;2023-05-07T13:21:36;2.58;;;1.55;;
19095;SDS011;9680;52.520;13.332;2023-05-07T13:24:03;2.08;;;1.30;;
19095;SDS011;9680;52.520;13.332;2023-05-07T13:26:30;2.67;;;1.38;;
19095;SDS011;9680;52.520;13.332;2023-05-07T13:28:57;3.38;;;1.23;;
19095;SDS011;9680;52.520;13.332;2023-05-07T13:31:25;1.92;;;1.42;;
19095;SDS011;9680;52.520;13.332;2023-05-07T13:33:52;3.10;;;1.55;;
19095;SDS011;9680;52.520;13.332;2023-05-07T13:36:18;1.95;;;1.30;;
19095;SDS011;9680;52.520;13.332;2023-05-07T13:38:45;3.15;;;1.40;;
19095;SDS011;9680;52.520;13.332;2023-05-07T13:41:12;1.90;;;1.02;;
19095;SDS011;9680;52.520;13.332;2023-05-07T13:43:39;2.28;;;1.45;;
19095;SDS011;9680;52.520;13.332;2023-05-07T13:46:06;2.10;;;1.40;;
19095;SDS011;9680;52.520;13.332;2023-05-07T13:48:34;2.72;;;1.70;;
19095;SDS011;9680;52.520;13.332;2023-05-07T13:51:01;3.20;;;1.40;;
19095;SDS011;9680;52.520;13.332;2023-05-07T13:53:28;3.28;;;1.70;;
19095;SDS011;9680;52.520;13.332;2023-05-07T13:55:55;2.25;;;1.45;;
19095;SDS011;9680;52.520;13.332;2023-05-07T13:58:22;2.20;;;1.20;;
19095;SDS011;9680;52.520;13.332;2023-05-07T14:00:49;1.80;;;1.38;;
19095;SDS011;9680;52.520;13.332;2023-05-07T14:03:18;2.75;;;1.48;;
19095;SDS011;9680;52.520;13.332;2023-05-07T14:05:46;2.22;;;1.35;;
19095;SDS011;9680;52.520;13.332;2023-05-07T14:08:13;2.50;;;1.52;;
19095;SDS011;9680;52.520;13.332;2023-05-07T14:10:40;2.50;;;1.60;;
19095;SDS011;9680;52.520;13.332;2023-05-07T14:13:06;2.08;;;1.40;;
19095;SDS011;9680;52.520;13.332;2023-05-07T14:15:33;3.17;;;1.50;;
19095;SDS011;9680;52.520;13.332;2023-05-07T14:18:00;5.22;;;1.58;;
19095;SDS011;9680;52.520;13.332;2023-05-07T14:20:27;3.90;;;1.70;;
19095;SDS011;9680;52.520;13.332;2023-05-07T14:22:57;7.15;;;1.70;;
19095;SDS011;9680;52.520;13.332;2023-05-07T14:25:24;2.88;;;1.50;;
19095;SDS011;9680;52.520;13.332;2023-05-07T14:27:51;2.63;;;1.73;;
19095;SDS011;9680;52.520;13.332;2023-05-07T14:30:17;6.65;;;1.70;;
19095;SDS011;9680;52.520;13.332;2023-05-07T14:32:44;2.78;;;1.60;;
19095;SDS011;9680;52.520;13.332;2023-05-07T14:35:11;3.30;;;1.60;;
19095;SDS011;9680;52.520;13.332;2023-05-07T14:37:38;2.40;;;1.48;;
19095;SDS011;9680;52.520;13.332;2023-05-07T14:40:07;2.65;;;1.73;;
19095;SDS011;9680;52.520;13.332;2023-05-07T14:42:34;2.40;;;1.42;;
19095;SDS011;9680;52.520;13.332;2023-05-07T14:45:01;2.63;;;1.45;;
19095;SDS011;9680;52.520;13.332;2023-05-07T14:47:28;2.17;;;1.42;;
19095;SDS011;9680;52.520;13.332;2023-05-07T14:49:55;2.78;;;1.70;;
19095;SDS011;9680;52.520;13.332;2023-05-07T14:52:23;3.55;;;1.70;;
19095;SDS011;9680;52.520;13.332;2023-05-07T14:54:51;2.17;;;1.50;;
19095;SDS011;9680;52.520;13.332;2023-05-07T14:57:19;4.85;;;1.42;;
19095;SDS011;9680;52.520;13.332;2023-05-07T14:59:46;1.67;;;1.17;;
19095;SDS011;9680;52.520;13.332;2023-05-07T15:02:13;1.83;;;1.30;;
19095;SDS011;9680;52.520;13.332;2023-05-07T15:04:40;3.03;;;1.30;;
19095;SDS011;9680;52.520;13.332;2023-05-07T15:07:10;1.88;;;1.25;;